Time;durP1;ratioP1;P1;durP2;ratioP2;P2;SDS_P1;SDS_P2;PMS_P1;PMS_P2;Temp;Humidity;BMP_temperature;BMP_pressure;BME280_temperature;BME280_humidity;BME280_pressure;Samples;Min_cycle;Max_cycle;Signal;HPM_P1;HPM_P2
2022/05/24 00:00:25;;;;;;;8.57;5.83;;;16.90;99.90;17.60;95960.00;;;;5048447;28;20577;-65
2022/05/24 00:03:14;;;;;;;7.30;6.50;;;16.60;99.90;17.70;95947.00;;;;5046500;28;20781;-65
2022/05/24 00:06:03;;;;;;;7.07;6.27;;;16.40;99.90;17.80;95944.00;;;;5041972;28;20196;-64
2022/05/24 00:08:53;;;;;;;8.03;6.03;;;16.20;99.90;17.60;95939.00;;;;5060679;28;20197;-65
2022/05/24 00:11:42;;;;;;;6.73;6.13;;;16.40;99.90;17.00;95949.00;;;;5052241;28;20205;-65
2022/05/24 00:17:37;;;;;;;7.93;6.90;;;16.30;99.90;17.10;95953.00;;;;5050911;28;20201;-64
2022/05/24 00:20:31;;;;;;;9.73;7.03;;;16.00;99.90;17.40;95956.00;;;;5048386;28;20193;-65
2022/05/24 00:23:22;;;;;;;9.30;6.93;;;16.30;99.90;17.30;95977.00;;;;5046532;28;20715;-63
2022/05/24 00:26:19;;;;;;;8.50;5.90;;;16.00;99.90;17.40;95986.00;;;;5054633;28;20207;-64
2022/05/24 00:29:07;;;;;;;10.27;6.57;;;15.80;99.90;17.40;95985.00;;;;5046849;28;20208;-64
2022/05/24 00:31:56;;;;;;;7.93;5.90;;;16.50;99.90;17.50;96000.00;;;;5052930;28;20212;-63
2022/05/24 00:34:45;;;;;;;6.33;5.73;;;17.00;99.90;17.20;96010.00;;;;5041083;28;20204;-63
2022/05/24 00:37:38;;;;;;;7.87;6.13;;;16.10;99.90;17.40;96021.00;;;;5047171;28;20216;-65
2022/05/24 00:40:39;;;;;;;5.83;5.30;;;16.10;99.90;17.10;96032.00;;;;5047750;28;20197;-65
2022/05/24 00:43:34;;;;;;;8.47;5.23;;;16.10;99.90;17.00;96049.00;;;;5055335;28;20226;-65
2022/05/24 00:46:26;;;;;;;5.77;5.17;;;16.10;99.90;17.00;96057.00;;;;5061142;28;20215;-64
2022/05/24 00:49:18;;;;;;;6.53;5.40;;;16.20;99.90;17.20;96057.00;;;;5050794;28;20688;-65
2022/05/24 00:52:11;;;;;;;6.60;4.87;;;15.90;99.90;17.40;96048.00;;;;5048907;28;20254;-64
2022/05/24 00:55:00;;;;;;;8.10;5.50;;;15.90;99.90;17.50;96058.00;;;;5047845;28;20207;-65
2022/05/24 00:57:59;;;;;;;5.60;5.03;;;16.20;99.90;17.60;96050.00;;;;5050074;28;20212;-65
2022/05/24 01:00:49;;;;;;;6.37;5.70;;;16.20;99.90;17.60;96038.00;;;;5044779;28;20691;-64
2022/05/24 01:03:38;;;;;;;6.33;5.67;;;16.20;99.90;17.50;96017.00;;;;5050876;28;20241;-66
2022/05/24 01:06:27;;;;;;;7.73;5.70;;;16.30;99.90;17.40;96018.00;;;;5044704;28;20624;-64
2022/05/24 01:09:19;;;;;;;5.83;5.30;;;16.20;99.90;17.40;96020.00;;;;5040950;28;20208;-64
2022/05/24 01:12:13;;;;;;;5.70;5.20;;;16.10;99.90;17.40;96015.00;;;;5063169;28;20217;-65
2022/05/24 01:15:07;;;;;;;6.47;5.30;;;16.20;99.90;17.40;96005.00;;;;5063179;28;20205;-65
2022/05/24 01:17:58;;;;;;;5.77;5.27;;;16.00;99.90;17.40;96000.00;;;;5051166;28;20211;-64
2022/05/24 01:20:53;;;;;;;9.17;5.57;;;15.90;99.90;17.10;95986.00;;;;5056748;28;20687;-64
2022/05/24 01:24:02;;;;;;;6.53;5.93;;;15.90;99.90;16.80;95995.00;;;;5052708;28;20718;-64
2022/05/24 01:26:55;;;;;;;6.03;5.37;;;16.00;99.90;16.80;95994.00;;;;5054804;28;20204;-64
2022/05/24 01:29:43;;;;;;;6.97;5.77;;;16.00;99.90;16.80;95985.00;;;;5051538;28;20188;-63
2022/05/24 01:38:50;;;;;;;6.13;5.60;;;15.70;99.90;17.40;95940.00;;;;5053666;28;20210;-63
2022/05/24 01:41:43;;;;;;;6.57;5.17;;;16.00;99.90;17.40;95913.00;;;;5053319;28;20275;-64
2022/05/24 01:44:38;;;;;;;8.37;5.63;;;15.90;99.90;17.40;95882.00;;;;5050248;28;20204;-64
2022/05/24 01:47:28;;;;;;;5.20;4.70;;;15.90;99.90;17.10;95872.00;;;;5053487;28;20204;-64
2022/05/24 01:50:22;;;;;;;5.40;4.90;;;16.10;99.90;17.10;95878.00;;;;5053449;28;20940;-64
2022/05/24 01:53:17;;;;;;;8.47;4.37;;;16.10;99.90;17.30;95884.00;;;;5053280;28;20228;-64
2022/05/24 01:56:11;;;;;;;7.00;4.47;;;15.90;99.90;17.20;95887.00;;;;5044717;28;20215;-65
2022/05/24 01:59:03;;;;;;;4.87;3.43;;;15.90;99.90;17.20;95889.00;;;;5044054;28;20204;-64
2022/05/24 02:01:56;;;;;;;4.50;4.10;;;16.00;99.90;17.20;95908.00;;;;5049164;28;20232;-65
2022/05/24 02:04:45;;;;;;;4.10;3.70;;;16.10;99.90;17.00;95909.00;;;;5049385;28;20220;-64
2022/05/24 02:07:34;;;;;;;4.50;3.17;;;16.20;99.90;16.90;95915.00;;;;5059421;28;20270;-64
2022/05/24 02:10:23;;;;;;;4.47;3.17;;;15.90;99.90;16.90;95932.00;;;;5052023;28;20201;-65
2022/05/24 02:13:15;;;;;;;3.33;3.03;;;15.90;99.90;16.50;95941.00;;;;5053986;28;20604;-64
2022/05/24 02:16:08;;;;;;;3.43;2.87;;;15.90;99.90;16.60;95945.00;;;;5055404;28;20215;-63
2022/05/24 02:18:59;;;;;;;3.13;2.90;;;15.80;99.90;16.80;95952.00;;;;5047826;28;20253;-64
2022/05/24 02:21:55;;;;;;;2.40;2.20;;;15.80;99.90;16.70;95944.00;;;;5047684;28;20715;-64
2022/05/24 02:24:44;;;;;;;3.00;2.30;;;15.90;99.90;16.80;95945.00;;;;5052654;28;20209;-64
2022/05/24 02:27:43;;;;;;;6.57;2.87;;;15.80;99.90;17.20;95942.00;;;;5049282;28;20197;-64
2022/05/24 02:30:33;;;;;;;3.63;3.07;;;15.90;99.90;17.30;95938.00;;;;5045512;28;20208;-64
2022/05/24 02:33:23;;;;;;;3.23;2.70;;;16.00;99.90;17.20;95946.00;;;;5058496;28;20632;-64
2022/05/24 02:36:14;;;;;;;4.37;3.40;;;16.10;99.90;17.20;95939.00;;;;5060598;28;20200;-64
2022/05/24 02:39:04;;;;;;;5.57;3.17;;;15.90;99.90;17.20;95918.00;;;;5052013;28;20212;-64
2022/05/24 02:41:52;;;;;;;4.57;2.33;;;15.80;99.90;17.20;95897.00;;;;5051993;28;20565;-65
2022/05/24 02:44:41;;;;;;;3.97;2.03;;;15.70;99.90;17.30;95893.00;;;;5052012;28;20226;-64
2022/05/24 02:47:30;;;;;;;4.53;4.13;;;16.00;99.90;17.20;95899.00;;;;5051514;28;20273;-65
2022/05/24 02:50:20;;;;;;;3.33;2.30;;;16.10;99.90;16.70;95917.00;;;;5052098;28;20209;-64
2022/05/24 02:53:10;;;;;;;5.93;2.70;;;15.70;99.90;16.90;95921.00;;;;5040330;28;20225;-64
2022/05/24 02:56:03;;;;;;;2.90;2.50;;;15.80;99.90;16.70;95938.00;;;;5045830;28;20676;-64
2022/05/24 02:58:51;;;;;;;3.23;2.37;;;15.80;99.90;16.80;95935.00;;;;5048145;28;20579;-64
2022/05/24 03:01:40;;;;;;;2.77;2.47;;;15.60;99.90;17.00;95922.00;;;;5049448;28;20208;-65
2022/05/24 03:04:29;;;;;;;4.03;3.73;;;15.70;99.90;17.00;95908.00;;;;5056534;28;20334;-63
2022/05/24 03:10:26;;;;;;;5.53;2.57;;;15.80;99.90;16.80;95923.00;;;;5050833;28;20556;-64
2022/05/24 03:16:17;;;;;;;5.27;3.23;;;15.70;99.90;16.50;95944.00;;;;5033215;28;20200;-64
2022/05/24 03:19:06;;;;;;;7.67;3.17;;;15.70;99.90;16.80;95936.00;;;;5050280;28;20204;-64
2022/05/24 03:21:55;;;;;;;4.37;2.67;;;15.40;99.90;16.90;95933.00;;;;5047316;28;20215;-64
2022/05/24 03:24:44;;;;;;;3.90;3.27;;;15.60;99.90;16.90;95930.00;;;;5050826;28;20209;-64
2022/05/24 03:27:34;;;;;;;5.20;3.10;;;15.70;99.90;17.00;95942.00;;;;5048096;28;20212;-65
2022/05/24 03:30:23;;;;;;;2.33;2.13;;;15.70;99.90;17.00;95930.00;;;;5048308;28;20212;-64
2022/05/24 03:33:13;;;;;;;4.73;3.00;;;15.60;99.90;17.00;95945.00;;;;5053909;28;20597;-64
2022/05/24 03:36:02;;;;;;;8.57;3.00;;;15.70;99.90;17.00;95938.00;;;;5053051;28;20209;-63
2022/05/24 03:38:50;;;;;;;3.47;2.83;;;15.80;99.90;16.90;95940.00;;;;5047968;28;20203;-64
2022/05/24 03:41:43;;;;;;;6.00;3.20;;;15.50;99.90;16.50;95948.00;;;;5052632;28;20670;-65
2022/05/24 03:44:34;;;;;;;6.30;3.30;;;15.60;99.90;16.80;95949.00;;;;5053096;28;20209;-65
2022/05/24 03:47:22;;;;;;;2.93;2.50;;;15.40;99.90;16.80;95950.00;;;;5051595;28;20696;-63
2022/05/24 03:50:12;;;;;;;3.13;2.83;;;15.70;99.90;16.80;95955.00;;;;5045070;28;20215;-64
2022/05/24 03:53:01;;;;;;;5.90;3.40;;;15.50;99.90;16.60;95960.00;;;;5041680;28;20224;-65
2022/05/24 03:55:50;;;;;;;3.00;2.80;;;15.60;99.90;16.60;95963.00;;;;5057832;28;20752;-63
2022/05/24 03:58:39;;;;;;;3.60;2.80;;;15.70;99.90;16.80;95964.00;;;;5048473;28;20192;-64
2022/05/24 04:01:29;;;;;;;3.10;2.90;;;15.40;99.90;16.90;95964.00;;;;5054142;28;20202;-65
2022/05/24 04:04:18;;;;;;;6.27;3.03;;;15.40;99.90;17.00;95966.00;;;;5049213;28;20207;-65
2022/05/24 04:07:07;;;;;;;3.30;2.90;;;15.50;99.90;16.90;95981.00;;;;5036188;28;20682;-63
2022/05/24 04:09:56;;;;;;;3.40;3.10;;;15.40;99.90;16.90;95971.00;;;;5048321;28;20209;-64
2022/05/24 04:12:44;;;;;;;6.37;2.93;;;15.70;99.90;17.00;95965.00;;;;5041999;28;20228;-64
2022/05/24 04:15:33;;;;;;;3.97;3.17;;;15.60;99.90;16.90;95966.00;;;;5049384;28;20216;-64
2022/05/24 04:18:24;;;;;;;4.10;3.13;;;15.70;99.90;16.70;95987.00;;;;5044571;28;20568;-64
2022/05/24 04:21:14;;;;;;;4.97;2.73;;;16.10;99.90;16.40;95986.00;;;;5051874;28;20211;-64
2022/05/24 04:24:03;;;;;;;4.07;3.20;;;15.40;99.90;16.50;95983.00;;;;5048778;28;20228;-64
2022/05/24 04:26:52;;;;;;;9.50;3.87;;;15.70;99.90;16.60;95990.00;;;;5039463;28;20193;-64
2022/05/24 04:29:42;;;;;;;3.33;3.03;;;15.50;99.90;16.50;95989.00;;;;5034164;28;20675;-64
2022/05/24 04:32:31;;;;;;;3.17;2.73;;;15.50;99.90;16.60;95990.00;;;;5050065;28;20235;-63
2022/05/24 04:35:21;;;;;;;3.40;3.10;;;15.50;99.90;16.70;95988.00;;;;5047636;28;20576;-63
2022/05/24 04:38:10;;;;;;;4.20;2.90;;;15.70;99.90;16.60;95993.00;;;;5047924;28;20212;-63
2022/05/24 04:44:07;;;;;;;4.53;3.60;;;15.50;99.90;16.30;95993.00;;;;5041949;28;20219;-62
2022/05/24 04:47:08;;;;;;;4.63;3.20;;;15.70;99.90;16.40;95992.00;;;;5046192;28;20594;-64
2022/05/24 04:49:59;;;;;;;4.50;3.80;;;15.60;99.90;16.80;95995.00;;;;5059915;28;20211;-65
2022/05/24 04:52:49;;;;;;;4.10;3.63;;;15.70;99.90;17.00;95998.00;;;;5041609;28;20231;-65
2022/05/24 04:55:38;;;;;;;6.00;3.30;;;15.60;99.90;17.30;96007.00;;;;5047506;28;20251;-65
2022/05/24 04:58:26;;;;;;;4.60;3.60;;;15.80;99.90;17.20;96006.00;;;;5047992;28;20242;-65
2022/05/24 05:01:15;;;;;;;3.43;3.13;;;15.90;99.90;17.10;96007.00;;;;5048133;28;20208;-64
2022/05/24 05:04:05;;;;;;;3.33;3.00;;;15.90;99.90;17.20;96011.00;;;;5051175;23;20241;-85
2022/05/24 05:06:54;;;;;;;3.57;3.27;;;16.00;99.90;17.40;96002.00;;;;5039780;28;20208;-85
2022/05/24 05:09:44;;;;;;;3.90;2.97;;;15.90;99.90;17.40;96007.00;;;;5034301;28;20669;-85
2022/05/24 05:12:33;;;;;;;3.70;3.37;;;16.10;99.90;17.20;96007.00;;;;5033645;28;20209;-85
2022/05/24 05:15:21;;;;;;;3.57;3.27;;;16.10;99.90;17.00;96000.00;;;;5052209;22;20226;-68
2022/05/24 05:18:13;;;;;;;4.07;3.20;;;16.00;99.90;17.00;95991.00;;;;5046999;28;20219;-68
2022/05/24 05:21:02;;;;;;;7.73;3.07;;;16.30;99.90;17.10;95992.00;;;;5051542;28;20201;-68
2022/05/24 05:23:52;;;;;;;4.43;3.37;;;15.80;99.90;17.10;96008.00;;;;5031378;28;20250;-68
2022/05/24 05:26:42;;;;;;;4.50;3.03;;;16.10;99.90;17.00;96004.00;;;;5031467;28;20205;-65
2022/05/24 05:32:39;;;;;;;5.37;3.47;;;16.00;99.90;17.50;96006.00;;;;5022086;28;20225;-65
2022/05/24 05:35:28;;;;;;;3.83;3.40;;;16.10;99.90;17.50;96000.00;;;;5028862;28;20204;-65
2022/05/24 05:38:17;;;;;;;6.30;3.80;;;16.10;99.90;17.40;96003.00;;;;5030397;28;20208;-65
2022/05/24 05:41:06;;;;;;;6.80;3.37;;;16.20;99.90;17.50;96004.00;;;;5029635;28;20214;-66
2022/05/24 05:43:57;;;;;;;4.73;3.60;;;15.80;99.90;17.60;95998.00;;;;5026334;28;20230;-65
2022/05/24 05:46:45;;;;;;;3.67;3.30;;;16.30;99.90;17.40;95995.00;;;;5029774;28;20229;-65
2022/05/24 05:49:35;;;;;;;5.57;3.03;;;16.30;99.90;17.30;95986.00;;;;5035786;28;20203;-65
2022/05/24 05:52:23;;;;;;;4.17;3.77;;;16.30;99.90;17.60;95979.00;;;;5027173;28;20247;-65
2022/05/24 05:55:13;;;;;;;5.70;4.70;;;16.30;99.90;17.40;95977.00;;;;5029897;28;20823;-65
2022/05/24 05:58:02;;;;;;;5.77;3.97;;;16.20;99.90;17.70;95986.00;;;;5029486;28;20197;-65
2022/05/24 06:00:52;;;;;;;5.27;4.57;;;16.50;99.90;17.60;95979.00;;;;5033037;28;20209;-65
2022/05/24 06:03:41;;;;;;;5.40;4.13;;;16.20;99.90;17.90;95984.00;;;;5029909;28;20220;-65
2022/05/24 06:06:36;;;;;;;6.10;4.80;;;16.70;99.90;18.20;95985.00;;;;5025936;28;20403;-65
2022/05/24 06:09:26;;;;;;;10.67;5.70;;;16.70;99.90;18.40;95991.00;;;;5024640;28;20217;-65
2022/05/24 06:12:15;;;;;;;5.43;4.53;;;16.70;99.90;18.50;95980.00;;;;5025487;28;20201;-65
2022/05/24 06:15:04;;;;;;;5.47;4.97;;;17.10;99.90;18.40;95975.00;;;;5029040;28;20213;-64
2022/05/24 06:17:55;;;;;;;6.47;4.03;;;17.20;99.90;18.70;95977.00;;;;5023464;28;20205;-65
2022/05/24 06:20:44;;;;;;;4.80;4.27;;;17.30;99.90;18.80;95972.00;;;;5028289;28;20208;-65
2022/05/24 06:23:33;;;;;;;7.77;3.63;;;17.40;99.90;19.10;95974.00;;;;5029970;28;20236;-65
2022/05/24 06:26:22;;;;;;;11.07;4.07;;;17.50;99.90;19.10;95966.00;;;;5028882;28;20592;-65
2022/05/24 06:29:11;;;;;;;4.90;3.93;;;17.60;99.90;19.20;95973.00;;;;5030274;28;20201;-65
2022/05/24 06:32:01;;;;;;;6.53;3.83;;;17.60;99.90;19.30;95972.00;;;;5033138;28;20232;-65
2022/05/24 06:34:52;;;;;;;3.10;2.80;;;17.90;99.90;19.40;95975.00;;;;5013047;28;20209;-65
2022/05/24 06:37:42;;;;;;;4.40;3.10;;;18.10;99.90;19.80;95966.00;;;;5025208;28;20216;-65
2022/05/24 06:40:31;;;;;;;4.00;3.00;;;18.20;99.90;19.90;95972.00;;;;5024352;28;20201;-65
2022/05/24 06:43:20;;;;;;;5.40;3.17;;;18.50;99.90;20.10;95963.00;;;;5020524;28;20229;-65
2022/05/24 06:46:09;;;;;;;5.03;3.17;;;18.50;99.90;20.10;95963.00;;;;5026806;28;20221;-65
2022/05/24 06:48:58;;;;;;;3.93;3.00;;;18.40;99.90;20.20;95974.00;;;;5023802;28;20205;-65
2022/05/24 06:51:48;;;;;;;5.67;3.20;;;18.50;99.90;20.50;95960.00;;;;5034844;28;20192;-65
2022/05/24 06:54:37;;;;;;;4.53;3.20;;;18.80;99.90;20.30;95971.00;;;;5021415;28;20212;-65
2022/05/24 06:57:26;;;;;;;2.93;2.73;;;18.40;99.90;20.50;95963.00;;;;5027234;28;20208;-66
2022/05/24 07:03:22;;;;;;;4.07;3.60;;;18.90;99.90;20.70;95981.00;;;;5017938;28;20236;-66
2022/05/24 07:06:12;;;;;;;3.27;2.87;;;19.10;99.90;20.70;95965.00;;;;5025966;28;20225;-66
2022/05/24 07:09:02;;;;;;;4.70;3.27;;;19.20;99.90;20.80;95970.00;;;;5022561;28;20194;-65
2022/05/24 07:11:51;;;;;;;5.80;4.47;;;19.60;99.90;20.90;95970.00;;;;5021212;28;20240;-65
2022/05/24 07:14:40;;;;;;;6.80;3.60;;;19.60;99.90;21.10;95965.00;;;;5025407;28;20201;-66
2022/05/24 07:17:29;;;;;;;6.00;3.60;;;19.50;99.90;21.10;95974.00;;;;5024293;28;20216;-65
2022/05/24 07:20:18;;;;;;;3.60;3.30;;;19.80;99.90;21.50;95966.00;;;;5029387;28;20577;-65
2022/05/24 07:23:10;;;;;;;6.43;3.33;;;19.80;99.90;21.40;95972.00;;;;5028581;28;20248;-65
2022/05/24 07:26:13;;;;;;;3.50;3.20;;;19.80;99.90;21.70;95971.00;;;;5025663;28;20247;-65
2022/05/24 07:29:08;;;;;;;5.80;3.20;;;20.10;99.90;22.20;95982.00;;;;5028497;28;20201;-65
2022/05/24 07:31:57;;;;;;;4.83;3.30;;;20.40;99.90;22.50;95976.00;;;;5025516;28;20594;-65
2022/05/24 07:34:46;;;;;;;3.50;3.20;;;20.60;99.90;22.80;95974.00;;;;5022726;28;20681;-65
2022/05/24 07:37:35;;;;;;;7.27;3.33;;;20.90;99.90;23.10;95974.00;;;;5027908;28;20197;-65
2022/05/24 07:46:45;;;;;;;4.63;3.23;;;21.60;99.90;23.80;95976.00;;;;5023488;28;20707;-65
2022/05/24 07:49:35;;;;;;;5.90;3.13;;;21.70;99.90;24.00;95973.00;;;;5023140;28;20212;-66
2022/05/24 07:52:23;;;;;;;4.07;2.57;;;21.70;99.90;24.10;95983.00;;;;5024599;28;20233;-66
2022/05/24 07:55:12;;;;;;;3.00;2.70;;;22.20;99.90;24.10;95978.00;;;;5019655;28;20210;-66
2022/05/24 07:58:01;;;;;;;4.07;2.13;;;22.30;99.90;24.30;95983.00;;;;5023703;28;20196;-66
2022/05/24 08:00:52;;;;;;;3.17;2.87;;;22.30;99.90;24.40;95986.00;;;;5027493;28;20208;-66
2022/05/24 08:03:41;;;;;;;3.27;2.27;;;22.50;99.90;24.50;95989.00;;;;5018575;28;20221;-65
2022/05/24 08:06:29;;;;;;;4.53;2.60;;;22.60;99.90;24.50;95986.00;;;;5017940;28;20221;-66
2022/05/24 08:09:18;;;;;;;10.53;2.50;;;22.50;99.90;24.50;95980.00;;;;5018873;28;20591;-66
2022/05/24 08:12:08;;;;;;;5.20;3.00;;;22.60;99.90;24.20;95987.00;;;;5016833;28;20209;-66
2022/05/24 08:14:58;;;;;;;7.20;2.73;;;22.80;99.90;23.60;95989.00;;;;5019466;28;20685;-66
2022/05/24 08:17:48;;;;;;;3.10;2.80;;;22.70;99.90;23.40;95981.00;;;;5026979;28;20220;-66
2022/05/24 08:20:39;;;;;;;2.40;2.20;;;22.30;99.90;23.70;95986.00;;;;5030191;28;20575;-66
2022/05/24 08:23:29;;;;;;;3.70;2.20;;;22.40;99.90;24.50;95986.00;;;;5031765;28;20217;-66
2022/05/24 08:26:18;;;;;;;6.43;1.90;;;22.50;99.90;24.90;95979.00;;;;5030744;28;20232;-66
2022/05/24 08:29:06;;;;;;;2.13;1.70;;;22.60;99.90;24.80;95988.00;;;;5025574;28;20205;-66
2022/05/24 08:31:55;;;;;;;2.43;2.23;;;22.80;99.90;25.10;95988.00;;;;5032206;28;20579;-66
2022/05/24 08:34:46;;;;;;;5.37;2.90;;;23.00;99.90;25.30;95975.00;;;;5028043;28;20201;-66
2022/05/24 08:37:35;;;;;;;3.83;2.10;;;23.20;99.90;25.20;95981.00;;;;5028991;28;20210;-66
2022/05/24 08:40:24;;;;;;;9.50;2.90;;;23.30;99.90;25.50;95980.00;;;;5022450;28;20216;-66
2022/05/24 08:43:50;;;;;;;10.70;4.00;;;23.40;99.90;25.80;95984.00;;;;5029876;28;20227;-66
2022/05/24 08:49:49;;;;;;;8.90;3.47;;;23.90;99.90;26.50;96007.00;;;;5025560;28;20203;-66
2022/05/24 08:52:43;;;;;;;11.63;4.20;;;24.20;99.90;26.40;95988.00;;;;5033347;28;20644;-66
2022/05/24 08:55:32;;;;;;;8.40;3.93;;;24.50;99.90;26.70;95988.00;;;;5022606;28;20209;-66
2022/05/24 08:58:31;;;;;;;9.17;2.70;;;24.50;99.90;26.00;95989.00;;;;5023620;28;20204;-66
2022/05/24 09:01:24;;;;;;;4.77;2.63;;;24.60;99.90;26.90;95985.00;;;;5022210;28;20217;-66
2022/05/24 09:04:14;;;;;;;6.00;3.63;;;24.70;99.90;27.30;95987.00;;;;5021758;28;20223;-66
2022/05/24 09:07:22;;;;;;;6.63;2.63;;;25.00;99.90;27.10;95991.00;;;;5024486;28;20234;-66
2022/05/24 09:10:16;;;;;;;3.13;2.53;;;25.00;99.90;26.80;95987.00;;;;5029574;28;20218;-66
2022/05/24 09:13:32;;;;;;;5.90;2.90;;;25.00;99.90;27.20;95996.00;;;;5017380;28;21083;-66
2022/05/24 09:16:20;;;;;;;8.40;2.60;;;25.30;99.90;27.10;96000.00;;;;5028323;28;20215;-66
2022/05/24 09:19:20;;;;;;;4.47;2.53;;;25.20;99.90;26.90;95995.00;;;;5028748;28;20208;-66
2022/05/24 09:22:11;;;;;;;6.00;2.50;;;25.20;99.90;26.00;95985.00;;;;5026668;28;20706;-66
2022/05/24 09:25:00;;;;;;;8.47;3.10;;;25.00;99.90;27.00;95987.00;;;;5028866;28;20661;-66
2022/05/24 09:27:55;;;;;;;7.93;3.00;;;25.10;99.90;27.60;95984.00;;;;5030745;28;20847;-66
2022/05/24 09:30:45;;;;;;;7.00;3.50;;;25.30;99.90;27.90;95985.00;;;;5029854;28;20199;-66
2022/05/24 09:33:40;;;;;;;7.67;2.70;;;25.40;99.90;28.00;96008.00;;;;5028811;28;20248;-66
2022/05/24 09:36:39;;;;;;;4.70;2.90;;;25.70;99.90;27.40;95998.00;;;;5027277;28;20206;-66
2022/05/24 09:39:32;;;;;;;5.80;2.57;;;25.60;99.90;27.80;95979.00;;;;5026536;28;20216;-66
2022/05/24 09:42:28;;;;;;;4.30;2.83;;;25.80;99.90;27.50;95986.00;;;;5030234;28;20194;-66
2022/05/24 09:45:21;;;;;;;4.30;2.40;;;25.70;99.90;27.90;95981.00;;;;5026463;28;20204;-67
2022/05/24 09:48:24;;;;;;;6.33;2.70;;;25.80;99.90;28.50;95978.00;;;;5027104;28;20231;-66
2022/05/24 09:51:13;;;;;;;6.70;3.07;;;26.10;99.90;28.70;95980.00;;;;5022596;28;20216;-66
2022/05/24 09:54:07;;;;;;;2.83;2.33;;;26.30;99.90;27.30;95965.00;;;;5029445;28;20629;-66
2022/05/24 09:57:09;;;;;;;5.77;3.03;;;26.30;99.90;28.50;95988.00;;;;5025464;28;20209;-66
2022/05/24 10:00:07;;;;;;;5.67;2.40;;;26.40;99.90;29.10;95987.00;;;;5038074;28;20708;-66
2022/05/24 10:03:08;;;;;;;5.23;2.53;;;26.50;99.90;29.20;95981.00;;;;5027330;28;20232;-66
2022/05/24 10:06:12;;;;;;;4.37;2.30;;;27.00;99.90;28.60;95986.00;;;;5022768;28;20198;-66
2022/05/24 10:09:05;;;;;;;3.00;2.17;;;26.90;98.60;28.30;95975.00;;;;5031583;28;20207;-66
2022/05/24 10:11:57;;;;;;;4.30;2.20;;;26.90;97.60;28.40;95965.00;;;;5026987;28;20206;-67
2022/05/24 10:15:04;;;;;;;6.57;2.97;;;27.00;97.50;27.80;95961.00;;;;5028733;28;20195;-68
2022/05/24 10:18:09;;;;;;;5.27;2.83;;;26.80;95.70;27.70;96003.00;;;;5018679;28;20218;-67
2022/05/24 10:21:13;;;;;;;2.70;2.50;;;26.50;96.60;26.80;95956.00;;;;5029873;28;20210;-66
2022/05/24 10:24:20;;;;;;;4.90;2.97;;;26.10;97.60;29.20;95953.00;;;;5028404;28;20237;-67
2022/05/24 10:27:17;;;;;;;3.87;2.43;;;26.50;99.60;29.10;95940.00;;;;5027333;28;20256;-67
2022/05/24 10:30:12;;;;;;;5.20;2.90;;;26.80;97.40;28.90;95955.00;;;;5022336;28;20212;-67
2022/05/24 10:39:49;;;;;;;4.17;3.30;;;26.30;97.30;28.20;95961.00;;;;5030931;28;20226;-67
2022/05/24 10:42:57;;;;;;;3.03;2.60;;;26.10;98.90;28.80;95983.00;;;;5026346;28;20231;-67
2022/05/24 10:45:52;;;;;;;4.83;3.13;;;26.30;99.90;28.20;95962.00;;;;5031388;28;21452;-67
2022/05/24 10:48:45;;;;;;;4.07;3.47;;;26.50;99.90;29.40;95983.00;;;;5035985;28;20229;-67
2022/05/24 10:51:40;;;;;;;5.03;3.33;;;26.70;99.80;29.30;95964.00;;;;5031111;28;20210;-67
2022/05/24 10:54:39;;;;;;;4.07;3.00;;;27.00;99.90;29.10;95931.00;;;;5018850;28;20228;-68
2022/05/24 10:57:34;;;;;;;4.27;3.80;;;27.40;97.80;28.70;95966.00;;;;5029746;28;20595;-67
2022/05/24 11:00:31;;;;;;;5.63;3.73;;;27.40;98.20;29.80;95956.00;;;;5031486;28;20215;-67
2022/05/24 11:03:28;;;;;;;4.87;3.43;;;27.40;98.40;29.70;95991.00;;;;5030508;28;20260;-65
2022/05/24 11:06:25;;;;;;;3.50;3.20;;;27.60;98.50;29.40;95985.00;;;;5020214;28;20210;-67
2022/05/24 11:09:19;;;;;;;4.27;2.87;;;27.40;98.40;29.90;95990.00;;;;5029650;28;20222;-68
2022/05/24 11:12:13;;;;;;;5.40;3.23;;;27.70;98.30;29.80;95986.00;;;;5029659;28;20206;-68
2022/05/24 11:15:08;;;;;;;3.50;3.20;;;27.70;97.90;29.80;95980.00;;;;5029863;28;20206;-68
2022/05/24 11:17:56;;;;;;;6.90;3.20;;;27.90;96.40;28.80;95998.00;;;;5030469;28;20215;-68
2022/05/24 11:20:54;;;;;;;3.27;2.93;;;27.60;95.60;28.00;95988.00;;;;5024663;28;20208;-67
2022/05/24 11:23:50;;;;;;;4.40;4.00;;;27.20;95.20;29.90;95936.00;;;;5027752;28;20222;-67
2022/05/24 11:26:47;;;;;;;8.93;4.37;;;27.40;97.00;29.30;95944.00;;;;5010667;28;20203;-67
2022/05/24 11:29:47;;;;;;;9.07;4.93;;;27.60;94.60;29.40;95939.00;;;;5024976;28;20215;-67
2022/05/24 11:32:40;;;;;;;4.17;3.37;;;28.00;94.80;30.70;95941.00;;;;5027642;28;20741;-67
2022/05/24 11:35:35;;;;;;;5.50;3.27;;;28.10;93.90;30.80;95960.00;;;;5026657;28;20198;-67
2022/05/24 11:38:43;;;;;;;4.47;3.53;;;28.40;94.00;27.60;95988.00;;;;5024436;28;20224;-68
2022/05/24 11:41:33;;;;;;;4.03;3.53;;;28.00;91.90;27.10;95990.00;;;;5026112;28;20198;-67
2022/05/24 11:44:35;;;;;;;3.60;3.30;;;27.10;92.60;27.10;95983.00;;;;5024772;28;20235;-67
2022/05/24 11:48:00;;;;;;;5.57;3.23;;;26.60;94.40;27.90;95976.00;;;;5022278;28;20208;-67
2022/05/24 11:50:51;;;;;;;6.00;3.70;;;26.50;95.80;28.20;95965.00;;;;5018390;28;20207;-67
2022/05/24 11:53:43;;;;;;;3.97;3.47;;;26.20;97.50;28.10;95988.00;;;;5021339;28;20223;-67
2022/05/24 11:56:33;;;;;;;6.87;4.30;;;26.40;96.90;27.60;95980.00;;;;5026700;28;20207;-66
2022/05/24 11:59:52;;;;;;;4.20;3.80;;;26.10;96.30;27.10;95978.00;;;;5025970;28;20211;-67
2022/05/24 12:09:18;;;;;;;6.57;4.77;;;25.90;96.80;27.40;95958.00;;;;5021133;28;20232;-67
2022/05/24 12:12:23;;;;;;;4.60;3.83;;;25.90;97.10;28.00;95959.00;;;;5024572;28;20190;-67
2022/05/24 12:15:20;;;;;;;7.20;3.80;;;26.00;97.90;28.00;95954.00;;;;5029817;28;20217;-67
2022/05/24 12:18:19;;;;;;;6.13;5.03;;;25.90;98.00;28.20;95946.00;;;;5019245;28;20203;-67
2022/05/24 12:21:08;;;;;;;6.10;4.43;;;26.20;98.40;27.80;95955.00;;;;5024190;28;20216;-66
2022/05/24 12:24:44;;;;;;;5.03;4.00;;;26.30;96.90;27.80;95952.00;;;;5023013;28;20226;-65
2022/05/24 12:27:57;;;;;;;8.93;4.17;;;26.20;97.80;27.50;95946.00;;;;5016326;28;20201;-65
2022/05/24 12:30:48;;;;;;;7.70;3.80;;;26.00;99.10;27.40;95947.00;;;;5026108;28;20206;-66
2022/05/24 12:33:43;;;;;;;4.60;4.20;;;25.90;99.10;27.60;95947.00;;;;5023803;28;20229;-66
2022/05/24 12:36:37;;;;;;;7.60;4.13;;;25.80;99.90;27.90;95934.00;;;;5024663;28;20683;-66
2022/05/24 12:40:18;;;;;;;6.10;4.50;;;26.00;99.70;28.90;95937.00;;;;5022449;28;20286;-66
2022/05/24 12:43:15;;;;;;;7.27;4.00;;;26.30;99.90;30.10;95881.00;;;;5021161;28;20225;-67
2022/05/24 12:46:04;;;;;;;7.30;3.70;;;26.90;99.90;30.60;95915.00;;;;5024126;28;20201;-67
2022/05/24 12:49:01;;;;;;;5.77;3.70;;;27.60;99.10;30.10;95905.00;;;;5023657;28;20722;-66
2022/05/24 12:51:55;;;;;;;5.90;3.57;;;27.90;96.70;30.50;95877.00;;;;5016205;28;20713;-66
2022/05/24 12:54:46;;;;;;;8.03;4.70;;;28.10;96.80;28.90;95920.00;;;;5028761;28;20203;-67
2022/05/24 12:57:43;;;;;;;4.60;4.20;;;28.00;93.70;29.00;95919.00;;;;5019058;28;20211;-67
2022/05/24 13:00:31;;;;;;;5.60;3.73;;;27.70;94.50;29.40;95915.00;;;;5011756;28;20580;-66
2022/05/24 13:03:24;;;;;;;5.67;3.57;;;27.60;96.10;29.90;95856.00;;;;5018635;28;20228;-66
2022/05/24 13:06:22;;;;;;;6.87;4.73;;;27.70;96.60;30.10;95923.00;;;;5024878;28;20744;-66
2022/05/24 13:09:16;;;;;;;4.63;3.90;;;27.80;96.20;29.20;95924.00;;;;5014987;28;20223;-66
2022/05/24 13:12:08;;;;;;;9.37;5.03;;;27.80;94.00;28.60;95859.00;;;;5030571;28;20204;-68
2022/05/24 13:15:01;;;;;;;6.00;4.17;;;27.60;93.70;30.50;95868.00;;;;5030147;28;20693;-66
2022/05/24 13:17:56;;;;;;;5.77;3.97;;;27.90;94.60;30.60;95902.00;;;;5020283;28;20216;-66
2022/05/24 13:20:47;;;;;;;6.37;4.17;;;28.10;95.00;31.70;95852.00;;;;5029878;28;20696;-67
2022/05/24 13:23:40;;;;;;;5.78;4.03;;;28.50;94.60;31.40;95858.00;;;;5028990;28;20824;-67
2022/05/24 13:26:28;;;;;;;3.83;3.47;;;29.10;91.90;32.80;95854.00;;;;5030119;28;20202;-66
2022/05/24 13:29:24;;;;;;;4.15;3.85;;;29.50;92.90;33.10;95832.00;;;;5024460;28;20219;-66
2022/05/24 13:35:21;;;;;;;3.85;3.28;;;30.60;92.20;31.60;95892.00;;;;5025695;28;20208;-66
2022/05/24 13:38:10;;;;;;;6.78;4.50;;;30.50;90.60;30.90;95880.00;;;;5030997;28;20326;-66